createdAt,value
2022-08-23T00:02:29.489Z,94.46
2022-08-23T00:05:09.132Z,95.45
2022-08-23T00:07:41.825Z,96.21
2022-08-23T00:10:13.390Z,95.78
2022-08-23T00:12:45.251Z,95.62
2022-08-23T00:15:16.783Z,95.82
2022-08-23T00:17:48.710Z,96.65
2022-08-23T00:20:20.363Z,96.78
2022-08-23T00:22:52.480Z,96.41
2022-08-23T00:25:23.993Z,97.49
2022-08-23T00:27:56.035Z,97.18
2022-08-23T00:30:27.548Z,97.08
2022-08-23T00:32:59.435Z,97.31
2022-08-23T00:35:30.961Z,96.87
2022-08-23T00:38:31.941Z,96.54
2022-08-23T00:40:54.804Z,96.24
2022-08-23T00:43:45.071Z,96.75
2022-08-23T00:46:35.653Z,97.03
2022-08-23T00:49:07.180Z,97.02
2022-08-23T00:51:43.085Z,97.13
2022-08-23T00:54:24.932Z,97.50
2022-08-23T00:56:56.836Z,97.51
2022-08-23T00:59:28.940Z,99.42
2022-08-23T01:02:01.376Z,99.31
2022-08-23T01:04:32.933Z,97.96
2022-08-23T01:07:04.886Z,98.17
2022-08-23T01:09:36.405Z,96.52
2022-08-23T01:12:08.355Z,97.68
2022-08-23T01:14:39.891Z,98.14
2022-08-23T01:17:11.817Z,98.44
2022-08-23T01:19:43.338Z,97.72
2022-08-23T01:22:15.195Z,97.59
2022-08-23T01:25:07.345Z,96.60
2022-08-23T01:27:38.585Z,96.49
2022-08-23T01:30:10.120Z,96.44
2022-08-23T01:32:42.147Z,95.89
2022-08-23T01:35:14.066Z,94.96
2022-08-23T01:37:46.199Z,95.04
2022-08-23T01:40:17.824Z,95.29
2022-08-23T01:42:49.733Z,95.25
2022-08-23T01:45:21.291Z,95.00
2022-08-23T01:47:53.117Z,95.36
2022-08-23T01:50:24.666Z,95.47
2022-08-23T01:52:56.625Z,96.15
2022-08-23T01:55:29.189Z,95.29
2022-08-23T01:58:00.722Z,95.43
2022-08-23T02:00:33.220Z,95.20
2022-08-23T02:03:04.747Z,95.76
2022-08-23T02:05:37.282Z,95.57
2022-08-23T02:08:27.733Z,95.45
2022-08-23T02:10:59.590Z,95.50
2022-08-23T02:13:31.132Z,94.14
2022-08-23T02:16:03.097Z,94.71
2022-08-23T02:18:34.652Z,94.06
2022-08-23T02:23:40.921Z,93.45
2022-08-23T02:26:12.888Z,92.73
2022-08-23T02:28:44.935Z,93.15
2022-08-23T02:31:16.774Z,92.49
2022-08-23T02:36:39.722Z,92.78
2022-08-23T02:39:11.280Z,93.15
2022-08-23T02:41:42.918Z,93.82
2022-08-23T02:44:14.480Z,93.51
2022-08-23T02:46:46.574Z,92.74
2022-08-23T02:49:18.394Z,93.65
2022-08-23T02:51:50.358Z,93.94
2022-08-23T02:54:22.073Z,93.89
2022-08-23T02:56:54.283Z,94.26
2022-08-23T02:59:25.872Z,93.96
2022-08-23T03:01:57.486Z,94.27
2022-08-23T03:04:29.106Z,94.64
2022-08-23T03:07:00.697Z,94.70
2022-08-23T03:09:32.262Z,94.76
2022-08-23T03:12:04.223Z,95.59
2022-08-23T03:14:37.935Z,95.16
2022-08-23T03:17:09.540Z,95.72
2022-08-23T03:19:41.114Z,95.59
2022-08-23T03:22:13.213Z,95.76
2022-08-23T03:24:45.358Z,94.97
2022-08-23T03:27:16.921Z,95.42
2022-08-23T03:29:49.166Z,95.62
2022-08-23T03:32:20.727Z,95.50
2022-08-23T03:34:52.498Z,96.08
2022-08-23T03:37:24.046Z,95.94
2022-08-23T03:39:56.118Z,96.08
2022-08-23T03:42:30.866Z,95.98
2022-08-23T03:45:03.263Z,96.84
2022-08-23T03:47:35.189Z,97.19
2022-08-23T03:50:07.032Z,97.59
2022-08-23T03:52:38.576Z,97.18
2022-08-23T03:55:10.455Z,97.39
2022-08-23T03:57:41.959Z,97.63
2022-08-23T04:00:13.653Z,97.58
2022-08-23T04:02:51.831Z,97.86
2022-08-23T04:05:23.809Z,98.36
2022-08-23T04:07:55.418Z,99.05
2022-08-23T04:10:27.392Z,98.47
2022-08-23T04:12:58.997Z,98.98
2022-08-23T04:15:31.417Z,98.81
2022-08-23T04:18:03.028Z,98.61
2022-08-23T04:20:35.074Z,99.67
2022-08-23T04:23:06.622Z,99.13
2022-08-23T04:25:39.134Z,99.78
2022-08-23T04:28:10.636Z,100.00
2022-08-23T04:30:42.629Z,100.00
2022-08-23T04:33:18.433Z,99.98
2022-08-23T04:35:53.249Z,100.00
2022-08-23T04:38:25.423Z,100.00
2022-08-23T04:41:16.101Z,99.98
2022-08-23T04:43:47.603Z,100.00
2022-08-23T04:46:19.439Z,100.00
2022-08-23T04:48:51.391Z,100.00
2022-08-23T04:51:22.890Z,100.00
2022-08-23T04:53:55.773Z,100.00
2022-08-23T04:56:28.387Z,100.00
2022-08-23T04:59:00.377Z,100.00
2022-08-23T05:01:31.891Z,100.00
2022-08-23T05:04:03.506Z,100.00
2022-08-23T05:06:35.137Z,100.00
2022-08-23T05:09:07.028Z,100.00
2022-08-23T05:11:38.512Z,100.00
2022-08-23T05:14:10.412Z,100.00
2022-08-23T05:16:41.913Z,99.89
2022-08-23T05:19:13.957Z,99.88
2022-08-23T05:21:45.493Z,99.56
2022-08-23T05:24:17.309Z,99.45
2022-08-23T05:26:48.817Z,98.97
2022-08-23T05:29:21.916Z,98.91
2022-08-23T05:31:53.800Z,98.18
2022-08-23T05:34:26.005Z,97.94
2022-08-23T05:36:57.551Z,97.03
2022-08-23T05:39:35.999Z,96.02
2022-08-23T05:42:08.700Z,95.11
2022-08-23T05:44:40.494Z,94.36
2022-08-23T05:47:12.031Z,93.92
2022-08-23T05:49:43.834Z,92.67
2022-08-23T05:52:15.395Z,91.92
2022-08-23T05:54:47.305Z,91.73
2022-08-23T05:57:18.826Z,91.96
2022-08-23T05:59:50.649Z,90.78
2022-08-23T06:02:22.147Z,90.16
2022-08-23T06:04:57.258Z,89.40
2022-08-23T06:07:28.973Z,88.36
2022-08-23T06:10:00.876Z,87.73
2022-08-23T06:12:32.426Z,87.59
2022-08-23T06:15:05.688Z,87.85
2022-08-23T06:17:37.576Z,87.27
2022-08-23T06:20:10.623Z,86.91
2022-08-23T06:22:42.176Z,87.11
2022-08-23T06:25:13.986Z,87.63
2022-08-23T06:27:45.520Z,88.44
2022-08-23T06:30:17.338Z,86.63
2022-08-23T06:32:48.904Z,86.09
2022-08-23T06:35:38.287Z,86.71
2022-08-23T06:38:11.163Z,85.56
2022-08-23T06:40:43.281Z,84.95
2022-08-23T06:43:14.814Z,83.97
2022-08-23T06:45:54.878Z,83.18
2022-08-23T06:48:29.887Z,81.76
2022-08-23T06:51:01.771Z,81.15
2022-08-23T06:53:33.308Z,81.01
2022-08-23T06:56:05.303Z,79.34
2022-08-23T06:58:36.811Z,80.06
2022-08-23T07:01:18.797Z,78.70
2022-08-23T07:04:00.174Z,78.45
2022-08-23T07:06:32.303Z,78.99
2022-08-23T07:09:03.830Z,78.69
2022-08-23T07:11:35.773Z,79.54
2022-08-23T07:14:07.402Z,78.17
2022-08-23T07:16:39.284Z,78.49
2022-08-23T07:19:10.828Z,77.38
2022-08-23T07:21:42.704Z,75.90
2022-08-23T07:24:14.914Z,75.36
2022-08-23T07:26:46.462Z,75.70
2022-08-23T07:29:18.353Z,75.73
2022-08-23T07:31:49.943Z,73.37
2022-08-23T07:34:21.833Z,73.35
2022-08-23T07:36:53.436Z,72.55
2022-08-23T07:39:27.021Z,71.67
2022-08-23T07:41:58.549Z,70.47
2022-08-23T07:44:34.552Z,70.70
2022-08-23T07:47:06.094Z,69.73
2022-08-23T07:49:38.140Z,70.64
2022-08-23T07:52:12.164Z,70.63
2022-08-23T07:54:48.366Z,69.64
2022-08-23T07:57:20.393Z,69.34
2022-08-23T07:59:52.215Z,69.48
2022-08-23T08:02:23.785Z,69.58
2022-08-23T08:04:55.633Z,70.62
2022-08-23T08:07:27.612Z,70.68
2022-08-23T08:10:02.835Z,70.07
2022-08-23T08:12:34.360Z,69.69
2022-08-23T08:15:06.241Z,71.13
2022-08-23T08:17:37.761Z,68.51
2022-08-23T08:20:09.801Z,68.04
2022-08-23T08:22:46.707Z,68.70
2022-08-23T08:25:19.631Z,67.46
2022-08-23T08:27:51.155Z,67.66
2022-08-23T08:30:23.050Z,66.94
2022-08-23T08:32:54.608Z,66.18
2022-08-23T08:35:26.412Z,64.86
2022-08-23T08:37:58.102Z,64.89
2022-08-23T08:40:30.706Z,62.50
2022-08-23T08:43:05.581Z,62.82
2022-08-23T08:45:37.737Z,63.24
2022-08-23T08:48:13.320Z,61.55
2022-08-23T08:50:45.580Z,60.47
2022-08-23T08:53:17.090Z,60.58
2022-08-23T08:55:48.766Z,59.96
2022-08-23T08:58:20.255Z,59.36
2022-08-23T09:00:56.571Z,59.26
2022-08-23T09:03:28.411Z,61.26
2022-08-23T09:06:00.365Z,60.32
2022-08-23T09:08:31.898Z,59.69
2022-08-23T09:11:07.106Z,59.29
2022-08-23T09:13:40.295Z,59.54
2022-08-23T09:16:15.926Z,59.81
2022-08-23T09:18:47.661Z,59.82
2022-08-23T09:21:19.691Z,59.51
2022-08-23T09:23:57.124Z,58.82
2022-08-23T09:26:32.992Z,58.73
2022-08-23T09:29:04.581Z,59.00
2022-08-23T09:31:36.813Z,58.69
2022-08-23T09:34:08.376Z,57.78
2022-08-23T09:36:40.332Z,58.86
2022-08-23T09:39:11.829Z,56.27
2022-08-23T09:41:44.063Z,57.38
2022-08-23T09:44:16.980Z,56.73
2022-08-23T09:46:48.481Z,56.92
2022-08-23T09:49:21.401Z,56.69
2022-08-23T09:51:54.232Z,56.39
2022-08-23T09:54:26.156Z,56.90
2022-08-23T09:56:57.704Z,57.47
2022-08-23T09:59:29.840Z,57.01
2022-08-23T10:02:02.313Z,55.39
2022-08-23T10:04:34.553Z,55.48
2022-08-23T10:07:06.244Z,55.73
2022-08-23T10:09:38.376Z,55.54
2022-08-23T10:12:09.921Z,54.68
2022-08-23T10:14:43.348Z,54.51
2022-08-23T10:17:14.973Z,53.77
2022-08-23T10:19:47.745Z,52.94
2022-08-23T10:22:19.556Z,52.58
2022-08-23T10:24:51.424Z,52.86
2022-08-23T10:27:41.964Z,52.37
2022-08-23T10:30:13.852Z,53.35
2022-08-23T10:32:46.154Z,52.15
2022-08-23T10:35:18.062Z,51.55
2022-08-23T10:37:49.623Z,52.38
2022-08-23T10:40:21.562Z,51.64
2022-08-23T10:42:53.337Z,50.36
2022-08-23T10:45:25.722Z,50.11
2022-08-23T10:47:59.037Z,49.85
2022-08-23T10:50:31.014Z,48.33
2022-08-23T10:53:02.570Z,48.81
2022-08-23T10:55:57.810Z,46.83
2022-08-23T10:58:30.855Z,50.27
2022-08-23T11:01:02.961Z,50.83
2022-08-23T11:03:34.610Z,50.05
2022-08-23T11:06:06.439Z,50.55
2022-08-23T11:08:47.512Z,49.32
2022-08-23T11:11:19.952Z,49.43
2022-08-23T11:13:51.473Z,50.06
2022-08-23T11:16:23.330Z,49.48
2022-08-23T11:18:54.878Z,49.85
2022-08-23T11:21:28.781Z,50.29
2022-08-23T11:24:00.334Z,50.61
2022-08-23T11:26:36.656Z,48.35
2022-08-23T11:29:08.250Z,48.18
2022-08-23T11:31:41.423Z,48.18
2022-08-23T11:34:13.291Z,49.14
2022-08-23T11:36:44.866Z,46.97
2022-08-23T11:39:21.629Z,45.82
2022-08-23T11:41:57.097Z,45.79
2022-08-23T11:44:29.193Z,45.23
2022-08-23T11:47:00.806Z,45.79
2022-08-23T11:49:34.627Z,46.46
2022-08-23T11:52:06.523Z,48.36
2022-08-23T11:54:39.729Z,49.46
2022-08-23T11:57:11.266Z,48.42
2022-08-23T11:59:43.174Z,48.72
2022-08-23T12:02:18.439Z,47.38
2022-08-23T12:04:51.781Z,47.72
2022-08-23T12:07:24.147Z,47.67
2022-08-23T12:09:56.896Z,48.23
2022-08-23T12:12:28.476Z,48.85
2022-08-23T12:15:00.448Z,48.71
2022-08-23T12:17:31.982Z,48.89
2022-08-23T12:20:16.342Z,47.99
2022-08-23T12:22:48.603Z,46.77
2022-08-23T12:25:20.799Z,47.05
2022-08-23T12:27:52.499Z,47.89
2022-08-23T12:30:24.420Z,46.85
2022-08-23T12:32:56.016Z,47.79
2022-08-23T12:35:27.900Z,47.43
2022-08-23T12:37:59.473Z,45.36
2022-08-23T12:40:32.084Z,47.02
2022-08-23T12:43:03.918Z,48.09
2022-08-23T12:45:35.634Z,48.72
2022-08-23T12:48:07.187Z,50.06
2022-08-23T12:50:39.059Z,50.22
2022-08-23T12:53:10.608Z,50.20
2022-08-23T12:55:42.553Z,51.33
2022-08-23T12:58:14.107Z,48.46
2022-08-23T13:00:45.984Z,45.58
2022-08-23T13:03:17.588Z,45.99
2022-08-23T13:05:52.787Z,46.70
2022-08-23T13:08:34.155Z,48.52
2022-08-23T13:11:08.539Z,46.53
2022-08-23T13:13:40.215Z,44.85
2022-08-23T13:16:12.151Z,44.30
2022-08-23T13:18:43.774Z,43.03
2022-08-23T13:21:15.728Z,43.59
2022-08-23T13:23:47.847Z,43.47
2022-08-23T13:26:19.965Z,41.77
2022-08-23T13:28:52.038Z,42.28
2022-08-23T13:31:23.703Z,43.61
2022-08-23T13:33:55.631Z,45.16
2022-08-23T13:36:27.609Z,45.95
2022-08-23T13:38:59.615Z,46.53
2022-08-23T13:41:31.162Z,44.09
2022-08-23T13:44:03.193Z,44.59
2022-08-23T13:46:34.915Z,45.19
2022-08-23T13:49:06.975Z,44.87
2022-08-23T13:51:38.837Z,44.75
2022-08-23T13:54:11.114Z,45.14
2022-08-23T13:56:42.733Z,45.75
2022-08-23T13:59:14.550Z,46.12
2022-08-23T14:01:46.132Z,47.08
2022-08-23T14:04:18.299Z,46.40
2022-08-23T14:06:51.396Z,46.55
2022-08-23T14:09:23.289Z,44.99
2022-08-23T14:11:54.838Z,45.21
2022-08-23T14:14:26.820Z,46.17
2022-08-23T14:17:02.489Z,46.59
2022-08-23T14:22:26.346Z,45.83
2022-08-23T14:24:58.440Z,46.91
2022-08-23T14:27:29.985Z,46.02
2022-08-23T14:30:01.622Z,45.26
2022-08-23T14:32:33.191Z,45.02
2022-08-23T14:35:05.310Z,45.20
2022-08-23T14:40:29.352Z,48.42
2022-08-23T14:43:01.038Z,48.68
2022-08-23T14:45:33.055Z,48.56
2022-08-23T14:48:04.590Z,47.95
2022-08-23T14:50:36.911Z,48.88
2022-08-23T14:53:08.512Z,49.31
2022-08-23T14:55:40.362Z,48.61
2022-08-23T14:58:11.884Z,45.29
2022-08-23T15:00:43.799Z,43.11
2022-08-23T15:03:15.372Z,43.84
2022-08-23T15:05:47.208Z,43.46
2022-08-23T15:08:18.792Z,41.38
2022-08-23T15:12:57.042Z,42.84
2022-08-23T15:13:55.603Z,45.61
2022-08-23T15:16:28.217Z,47.08
2022-08-23T15:19:00.092Z,46.92
2022-08-23T15:21:31.997Z,47.19
2022-08-23T15:24:03.632Z,47.37
2022-08-23T15:26:35.194Z,47.51
2022-08-23T15:29:07.132Z,49.47
2022-08-23T15:31:38.685Z,49.31
2022-08-23T15:34:12.789Z,47.84
2022-08-23T15:36:44.491Z,46.05
2022-08-23T15:39:16.487Z,45.00
2022-08-23T15:41:48.036Z,45.58
2022-08-23T15:44:19.898Z,45.54
2022-08-23T15:46:51.428Z,47.02
2022-08-23T15:49:23.260Z,47.21
2022-08-23T15:51:54.806Z,47.86
2022-08-23T15:54:26.677Z,48.07
2022-08-23T15:56:58.212Z,48.48
2022-08-23T15:59:30.360Z,49.02
2022-08-23T16:02:01.986Z,50.28
2022-08-23T16:04:35.638Z,50.97
2022-08-23T16:07:07.526Z,52.08
2022-08-23T16:09:39.489Z,52.17
2022-08-23T16:12:11.001Z,52.50
2022-08-23T16:14:42.789Z,53.29
2022-08-23T16:17:15.082Z,53.91
2022-08-23T16:19:46.916Z,53.77
2022-08-23T16:22:18.516Z,54.53
2022-08-23T16:24:50.395Z,55.10
2022-08-23T16:27:21.879Z,55.75
2022-08-23T16:29:53.817Z,54.91
2022-08-23T16:32:25.489Z,54.91
2022-08-23T16:34:57.332Z,56.04
2022-08-23T16:37:28.856Z,55.24
2022-08-23T16:40:00.888Z,55.57
2022-08-23T16:42:32.460Z,55.20
2022-08-23T16:45:04.325Z,55.09
2022-08-23T16:47:35.848Z,55.23
2022-08-23T16:50:07.605Z,56.04
2022-08-23T16:52:39.466Z,55.75
2022-08-23T16:55:11.338Z,55.93
2022-08-23T16:57:42.870Z,56.51
2022-08-23T17:00:15.748Z,57.19
2022-08-23T17:02:47.358Z,56.92
2022-08-23T17:05:19.396Z,57.00
2022-08-23T17:07:51.297Z,57.32
2022-08-23T17:10:22.799Z,57.11
2022-08-23T17:12:54.695Z,57.12
2022-08-23T17:15:26.185Z,57.37
2022-08-23T17:17:58.003Z,57.84
2022-08-23T17:20:29.568Z,58.44
2022-08-23T17:23:01.646Z,59.02
2022-08-23T17:25:37.452Z,59.42
2022-08-23T17:28:09.348Z,59.45
2022-08-23T17:30:40.923Z,60.19
2022-08-23T17:33:12.884Z,60.07
2022-08-23T17:35:45.524Z,60.96
2022-08-23T17:38:17.373Z,60.86
2022-08-23T17:40:48.978Z,60.88
2022-08-23T17:43:20.859Z,60.77
2022-08-23T17:45:52.448Z,61.32
2022-08-23T17:48:24.583Z,61.89
2022-08-23T17:51:01.516Z,62.00
2022-08-23T17:53:33.501Z,62.62
2022-08-23T17:56:05.848Z,63.02
2022-08-23T17:58:41.757Z,62.96
2022-08-23T18:01:13.957Z,62.91
2022-08-23T18:03:45.894Z,63.04
2022-08-23T18:06:17.542Z,63.49
2022-08-23T18:08:49.429Z,63.99
2022-08-23T18:11:20.931Z,64.19
2022-08-23T18:13:53.529Z,64.28
2022-08-23T18:16:31.728Z,65.02
2022-08-23T18:19:06.507Z,65.56
2022-08-23T18:21:42.684Z,65.86
2022-08-23T18:24:14.270Z,66.22
2022-08-23T18:27:04.748Z,66.45
2022-08-23T18:29:36.599Z,66.79
2022-08-23T18:32:08.141Z,67.33
2022-08-23T18:34:42.443Z,68.27
2022-08-23T18:37:17.182Z,69.02
2022-08-23T18:39:49.207Z,69.56
2022-08-23T18:42:20.789Z,69.95
2022-08-23T18:44:52.594Z,70.20
2022-08-23T18:47:24.150Z,70.87
2022-08-23T18:49:56.035Z,71.44
2022-08-23T18:52:29.230Z,71.81
2022-08-23T18:55:03.081Z,72.52
2022-08-23T18:57:34.657Z,72.82
2022-08-23T19:00:06.881Z,73.36
2022-08-23T19:02:38.438Z,74.02
2022-08-23T19:05:11.654Z,74.12
2022-08-23T19:07:43.727Z,74.35
2022-08-23T19:10:20.157Z,74.52
2022-08-23T19:12:54.375Z,75.01
2022-08-23T19:15:26.149Z,75.44
2022-08-23T19:18:01.301Z,75.81
2022-08-23T19:20:32.842Z,75.67
2022-08-23T19:23:05.074Z,76.40
2022-08-23T19:25:38.368Z,76.72
2022-08-23T19:28:10.211Z,77.11
2022-08-23T19:30:42.196Z,77.48
2022-08-23T19:33:13.826Z,77.69
2022-08-23T19:35:45.544Z,78.37
2022-08-23T19:38:17.383Z,78.43
2022-08-23T19:40:49.209Z,78.45
2022-08-23T19:43:21.004Z,78.91
2022-08-23T19:45:52.589Z,78.91
2022-08-23T19:48:24.438Z,79.54
2022-08-23T19:50:55.974Z,79.38
2022-08-23T19:53:27.863Z,79.63
2022-08-23T19:55:59.773Z,80.05
2022-08-23T19:58:31.286Z,80.31
2022-08-23T20:01:02.910Z,80.73
2022-08-23T20:03:34.442Z,81.07
2022-08-23T20:06:05.959Z,82.06
2022-08-23T20:08:37.687Z,81.90
2022-08-23T20:11:10.489Z,82.08
2022-08-23T20:13:42.056Z,82.17
2022-08-23T20:16:13.921Z,82.48
2022-08-23T20:18:46.156Z,82.70
2022-08-23T20:21:18.016Z,82.82
2022-08-23T20:24:01.465Z,83.08
2022-08-23T20:26:33.881Z,83.33
2022-08-23T20:29:05.374Z,83.73
2022-08-23T20:31:37.275Z,83.87
2022-08-23T20:34:08.918Z,84.04
2022-08-23T20:36:41.352Z,84.30
2022-08-23T20:39:12.944Z,84.65
2022-08-23T20:41:44.926Z,84.85
2022-08-23T20:44:17.042Z,84.77
2022-08-23T20:46:53.700Z,85.32
2022-08-23T20:49:26.295Z,85.78
2022-08-23T20:51:57.837Z,85.77
2022-08-23T20:54:29.362Z,86.25
2022-08-23T20:57:01.189Z,86.46
2022-08-23T20:59:32.691Z,86.12
2022-08-23T21:02:04.734Z,86.72
2022-08-23T21:04:36.603Z,86.73
2022-08-23T21:07:11.751Z,86.98
2022-08-23T21:09:43.593Z,87.74
2022-08-23T21:12:15.092Z,87.94
2022-08-23T21:14:47.400Z,88.26
2022-08-23T21:17:18.904Z,89.07
2022-08-23T21:19:50.843Z,89.09
2022-08-23T21:22:22.401Z,89.23
2022-08-23T21:25:02.337Z,89.74
2022-08-23T21:27:34.577Z,89.93
2022-08-23T21:30:06.642Z,90.47
2022-08-23T21:32:38.184Z,90.84
2022-08-23T21:35:10.261Z,91.10
2022-08-23T21:37:41.782Z,91.34
2022-08-23T21:40:13.430Z,91.75
2022-08-23T21:42:45.024Z,91.93
2022-08-23T21:45:16.908Z,92.06
2022-08-23T21:47:48.412Z,92.13
2022-08-23T21:50:20.357Z,92.81
2022-08-23T21:52:56.722Z,93.04
2022-08-23T21:55:31.723Z,93.56
2022-08-23T21:58:07.911Z,93.93
2022-08-23T22:00:39.888Z,93.72
2022-08-23T22:03:11.478Z,94.52
2022-08-23T22:05:43.100Z,94.56
2022-08-23T22:08:14.676Z,95.13
2022-08-23T22:10:58.188Z,95.08
2022-08-23T22:13:29.965Z,95.68
2022-08-23T22:18:33.533Z,95.99
2022-08-23T22:21:05.120Z,96.54
2022-08-23T22:23:36.708Z,96.27
2022-08-23T22:26:08.282Z,96.38
2022-08-23T22:28:44.283Z,96.92
2022-08-23T22:31:16.444Z,97.55
2022-08-23T22:33:48.503Z,97.82
2022-08-23T22:36:20.722Z,98.24
2022-08-23T22:38:52.270Z,98.82
2022-08-23T22:41:27.718Z,98.75
2022-08-23T22:43:59.678Z,99.66
2022-08-23T22:46:31.255Z,99.22
2022-08-23T22:49:03.819Z,99.79
2022-08-23T22:51:35.342Z,100.00
2022-08-23T22:54:07.307Z,100.00
2022-08-23T22:56:38.850Z,100.00
2022-08-23T22:59:10.700Z,100.00
2022-08-23T23:01:42.234Z,100.00
2022-08-23T23:04:16.237Z,100.00
2022-08-23T23:06:48.973Z,100.00
2022-08-23T23:09:20.917Z,100.00
2022-08-23T23:11:52.565Z,100.00
2022-08-23T23:14:24.552Z,100.00
2022-08-23T23:16:56.178Z,100.00
2022-08-23T23:19:46.778Z,100.00
2022-08-23T23:22:18.284Z,100.00
2022-08-23T23:24:50.209Z,100.00
2022-08-23T23:27:21.739Z,100.00
2022-08-23T23:29:53.739Z,100.00
2022-08-23T23:32:25.261Z,100.00
2022-08-23T23:34:57.320Z,100.00
2022-08-23T23:37:32.361Z,100.00
2022-08-23T23:40:04.431Z,100.00
2022-08-23T23:42:36.014Z,100.00
2022-08-23T23:45:07.814Z,100.00
2022-08-23T23:47:39.381Z,100.00
2022-08-23T23:50:11.448Z,100.00
2022-08-23T23:52:42.977Z,100.00
2022-08-23T23:55:15.010Z,100.00
2022-08-23T23:57:46.521Z,100.00
